sensor_id;sensor_type;location;lat;lon;timestamp;pressure;altitude;pressure_sealevel;temperature;humidity
43486;BME280;30447;48.742;8.972;2023-06-22T00:02:19;96812.63;;;20.39;100.00
43486;BME280;30447;48.742;8.972;2023-06-22T00:04:46;96802.34;;;20.32;100.00
43486;BME280;30447;48.742;8.972;2023-06-22T00:07:12;96806.09;;;20.27;100.00
43486;BME280;30447;48.742;8.972;2023-06-22T00:09:39;96802.06;;;20.18;100.00
43486;BME280;30447;48.742;8.972;2023-06-22T00:12:06;96815.81;;;20.25;100.00
43486;BME280;30447;48.742;8.972;2023-06-22T00:14:33;96814.59;;;20.11;100.00
43486;BME280;30447;48.742;8.972;2023-06-22T00:16:59;96816.56;;;20.06;100.00
43486;BME280;30447;48.742;8.972;2023-06-22T00:19:26;96823.37;;;20.12;100.00
43486;BME280;30447;48.742;8.972;2023-06-22T00:21:53;96823.41;;;20.32;100.00
43486;BME280;30447;48.742;8.972;2023-06-22T00:24:20;96819.72;;;20.37;100.00
43486;BME280;30447;48.742;8.972;2023-06-22T00:26:48;96824.56;;;20.25;100.00
43486;BME280;30447;48.742;8.972;2023-06-22T00:29:15;96820.84;;;20.08;100.00
43486;BME280;30447;48.742;8.972;2023-06-22T00:31:42;96816.81;;;20.00;100.00
43486;BME280;30447;48.742;8.972;2023-06-22T00:34:08;96812.41;;;20.00;100.00
43486;BME280;30447;48.742;8.972;2023-06-22T00:36:36;96816.22;;;19.91;100.00
43486;BME280;30447;48.742;8.972;2023-06-22T00:39:03;96818.62;;;19.98;100.00
43486;BME280;30447;48.742;8.972;2023-06-22T00:41:30;96844.34;;;19.67;100.00
43486;BME280;30447;48.742;8.972;2023-06-22T00:43:56;96836.88;;;19.78;100.00
43486;BME280;30447;48.742;8.972;2023-06-22T00:46:24;96814.91;;;20.03;100.00
43486;BME280;30447;48.742;8.972;2023-06-22T00:48:52;96802.84;;;19.98;100.00
43486;BME280;30447;48.742;8.972;2023-06-22T00:51:19;96855.28;;;20.02;100.00
43486;BME280;30447;48.742;8.972;2023-06-22T00:53:51;96891.97;;;20.05;100.00
43486;BME280;30447;48.742;8.972;2023-06-22T00:56:19;96876.13;;;20.07;100.00
43486;BME280;30447;48.742;8.972;2023-06-22T00:58:51;96874.88;;;19.93;100.00
43486;BME280;30447;48.742;8.972;2023-06-22T01:01:19;96892.31;;;19.96;100.00
43486;BME280;30447;48.742;8.972;2023-06-22T01:03:50;96886.69;;;20.05;100.00
43486;BME280;30447;48.742;8.972;2023-06-22T01:06:26;96873.69;;;20.25;100.00
43486;BME280;30447;48.742;8.972;2023-06-22T01:09:15;96856.22;;;20.24;100.00
43486;BME280;30447;48.742;8.972;2023-06-22T01:12:02;96859.81;;;20.21;100.00
43486;BME280;30447;48.742;8.972;2023-06-22T01:14:43;96846.00;;;20.16;100.00
43486;BME280;30447;48.742;8.972;2023-06-22T01:17:29;96843.53;;;20.11;100.00
43486;BME280;30447;48.742;8.972;2023-06-22T01:20:00;96840.16;;;20.30;100.00
43486;BME280;30447;48.742;8.972;2023-06-22T01:22:33;96834.66;;;20.14;100.00
43486;BME280;30447;48.742;8.972;2023-06-22T01:25:46;96817.75;;;19.99;100.00
43486;BME280;30447;48.742;8.972;2023-06-22T01:31:24;96826.56;;;19.74;100.00
43486;BME280;30447;48.742;8.972;2023-06-22T01:33:59;96828.72;;;19.62;100.00
43486;BME280;30447;48.742;8.972;2023-06-22T01:36:31;96833.09;;;19.63;100.00
43486;BME280;30447;48.742;8.972;2023-06-22T01:39:00;96829.09;;;19.53;100.00
43486;BME280;30447;48.742;8.972;2023-06-22T01:41:34;96827.59;;;19.46;100.00
43486;BME280;30447;48.742;8.972;2023-06-22T01:44:05;96827.50;;;19.49;100.00
43486;BME280;30447;48.742;8.972;2023-06-22T01:46:37;96822.94;;;19.54;100.00
43486;BME280;30447;48.742;8.972;2023-06-22T01:49:06;96827.84;;;19.39;100.00
43486;BME280;30447;48.742;8.972;2023-06-22T01:51:34;96829.91;;;19.31;100.00
43486;BME280;30447;48.742;8.972;2023-06-22T01:54:01;96842.09;;;19.32;100.00
43486;BME280;30447;48.742;8.972;2023-06-22T01:56:29;96837.03;;;19.51;100.00
43486;BME280;30447;48.742;8.972;2023-06-22T02:01:44;96850.34;;;19.47;100.00
43486;BME280;30447;48.742;8.972;2023-06-22T02:04:26;96853.81;;;19.23;100.00
43486;BME280;30447;48.742;8.972;2023-06-22T02:07:01;96852.00;;;19.25;100.00
43486;BME280;30447;48.742;8.972;2023-06-22T02:09:36;96861.34;;;19.33;100.00
43486;BME280;30447;48.742;8.972;2023-06-22T02:12:10;96852.78;;;19.27;100.00
43486;BME280;30447;48.742;8.972;2023-06-22T02:14:39;96860.37;;;19.35;100.00
43486;BME280;30447;48.742;8.972;2023-06-22T02:17:09;96849.88;;;19.59;100.00
43486;BME280;30447;48.742;8.972;2023-06-22T02:19:36;96845.59;;;19.33;100.00
43486;BME280;30447;48.742;8.972;2023-06-22T02:22:03;96846.22;;;19.15;100.00
43486;BME280;30447;48.742;8.972;2023-06-22T02:24:31;96837.87;;;19.02;100.00
43486;BME280;30447;48.742;8.972;2023-06-22T02:27:01;96823.78;;;19.07;100.00
43486;BME280;30447;48.742;8.972;2023-06-22T02:29:28;96817.22;;;18.93;100.00
43486;BME280;30447;48.742;8.972;2023-06-22T02:31:55;96807.53;;;18.95;100.00
43486;BME280;30447;48.742;8.972;2023-06-22T02:34:22;96804.25;;;19.14;100.00
43486;BME280;30447;48.742;8.972;2023-06-22T02:36:49;96812.47;;;19.05;100.00
43486;BME280;30447;48.742;8.972;2023-06-22T02:39:23;96822.50;;;18.92;100.00
43486;BME280;30447;48.742;8.972;2023-06-22T02:41:52;96819.94;;;18.90;100.00
43486;BME280;30447;48.742;8.972;2023-06-22T02:44:20;96818.47;;;18.83;100.00
43486;BME280;30447;48.742;8.972;2023-06-22T02:46:48;96811.03;;;18.70;100.00
43486;BME280;30447;48.742;8.972;2023-06-22T02:49:15;96811.28;;;18.62;100.00
43486;BME280;30447;48.742;8.972;2023-06-22T02:51:46;96819.31;;;18.58;100.00
43486;BME280;30447;48.742;8.972;2023-06-22T02:54:13;96815.03;;;18.55;100.00
43486;BME280;30447;48.742;8.972;2023-06-22T02:56:40;96814.31;;;18.50;100.00
43486;BME280;30447;48.742;8.972;2023-06-22T02:59:17;96813.09;;;18.60;100.00
43486;BME280;30447;48.742;8.972;2023-06-22T03:01:43;96809.41;;;18.66;100.00
43486;BME280;30447;48.742;8.972;2023-06-22T03:04:10;96807.59;;;18.68;100.00
43486;BME280;30447;48.742;8.972;2023-06-22T03:06:36;96806.47;;;18.75;100.00
43486;BME280;30447;48.742;8.972;2023-06-22T03:09:04;96807.59;;;18.68;100.00
43486;BME280;30447;48.742;8.972;2023-06-22T03:11:32;96808.00;;;18.81;100.00
43486;BME280;30447;48.742;8.972;2023-06-22T03:14:01;96809.72;;;18.82;100.00
43486;BME280;30447;48.742;8.972;2023-06-22T03:16:28;96818.69;;;18.76;100.00
43486;BME280;30447;48.742;8.972;2023-06-22T03:18:55;96811.88;;;18.96;100.00
43486;BME280;30447;48.742;8.972;2023-06-22T03:21:23;96803.72;;;18.79;100.00
43486;BME280;30447;48.742;8.972;2023-06-22T03:23:49;96800.03;;;18.59;100.00
43486;BME280;30447;48.742;8.972;2023-06-22T03:26:17;96800.41;;;18.48;100.00
43486;BME280;30447;48.742;8.972;2023-06-22T03:28:44;96793.38;;;18.48;100.00
43486;BME280;30447;48.742;8.972;2023-06-22T03:31:11;96799.13;;;18.60;100.00
43486;BME280;30447;48.742;8.972;2023-06-22T03:33:38;96791.91;;;18.41;100.00
43486;BME280;30447;48.742;8.972;2023-06-22T03:36:04;96787.41;;;18.45;100.00
43486;BME280;30447;48.742;8.972;2023-06-22T03:38:32;96786.66;;;18.41;100.00
43486;BME280;30447;48.742;8.972;2023-06-22T03:40:59;96788.28;;;18.69;100.00
43486;BME280;30447;48.742;8.972;2023-06-22T03:43:25;96784.59;;;18.49;100.00
43486;BME280;30447;48.742;8.972;2023-06-22T03:45:52;96788.56;;;18.61;100.00
43486;BME280;30447;48.742;8.972;2023-06-22T03:48:19;96791.59;;;18.50;100.00
43486;BME280;30447;48.742;8.972;2023-06-22T03:50:45;96787.78;;;18.59;100.00
43486;BME280;30447;48.742;8.972;2023-06-22T03:53:12;96778.59;;;18.46;100.00
43486;BME280;30447;48.742;8.972;2023-06-22T03:55:51;96781.50;;;18.38;100.00
43486;BME280;30447;48.742;8.972;2023-06-22T03:58:20;96782.81;;;18.24;100.00
43486;BME280;30447;48.742;8.972;2023-06-22T04:00:51;96777.78;;;18.18;100.00
43486;BME280;30447;48.742;8.972;2023-06-22T04:03:19;96787.34;;;18.19;100.00
43486;BME280;30447;48.742;8.972;2023-06-22T04:05:47;96788.25;;;18.45;100.00
43486;BME280;30447;48.742;8.972;2023-06-22T04:08:14;96783.59;;;18.54;100.00
43486;BME280;30447;48.742;8.972;2023-06-22T04:10:41;96775.56;;;18.33;100.00
43486;BME280;30447;48.742;8.972;2023-06-22T04:13:07;96775.50;;;18.34;100.00
43486;BME280;30447;48.742;8.972;2023-06-22T04:15:34;96778.47;;;18.23;100.00
43486;BME280;30447;48.742;8.972;2023-06-22T04:18:01;96772.22;;;18.28;100.00
43486;BME280;30447;48.742;8.972;2023-06-22T04:20:28;96774.59;;;18.61;100.00
43486;BME280;30447;48.742;8.972;2023-06-22T04:22:54;96769.31;;;18.62;100.00
43486;BME280;30447;48.742;8.972;2023-06-22T04:25:22;96756.63;;;18.50;100.00
43486;BME280;30447;48.742;8.972;2023-06-22T04:27:48;96765.78;;;18.63;100.00
43486;BME280;30447;48.742;8.972;2023-06-22T04:30:15;96767.56;;;18.61;100.00
43486;BME280;30447;48.742;8.972;2023-06-22T04:32:43;96767.47;;;18.64;100.00
43486;BME280;30447;48.742;8.972;2023-06-22T04:35:11;96759.28;;;18.74;100.00
43486;BME280;30447;48.742;8.972;2023-06-22T04:37:37;96767.44;;;18.66;100.00
43486;BME280;30447;48.742;8.972;2023-06-22T04:40:05;96757.91;;;18.87;100.00
43486;BME280;30447;48.742;8.972;2023-06-22T04:42:34;96762.19;;;18.90;100.00
43486;BME280;30447;48.742;8.972;2023-06-22T04:45:03;96754.53;;;18.84;100.00
43486;BME280;30447;48.742;8.972;2023-06-22T04:47:30;96751.25;;;19.02;100.00
43486;BME280;30447;48.742;8.972;2023-06-22T04:49:57;96755.03;;;18.95;100.00
43486;BME280;30447;48.742;8.972;2023-06-22T04:52:23;96749.28;;;19.09;100.00
43486;BME280;30447;48.742;8.972;2023-06-22T04:54:50;96745.22;;;19.24;100.00
43486;BME280;30447;48.742;8.972;2023-06-22T04:57:21;96744.63;;;19.40;100.00
43486;BME280;30447;48.742;8.972;2023-06-22T04:59:59;96741.22;;;19.60;100.00
43486;BME280;30447;48.742;8.972;2023-06-22T05:02:40;96745.16;;;19.72;100.00
43486;BME280;30447;48.742;8.972;2023-06-22T05:05:07;96753.13;;;19.91;100.00
43486;BME280;30447;48.742;8.972;2023-06-22T05:07:34;96747.69;;;19.96;100.00
43486;BME280;30447;48.742;8.972;2023-06-22T05:10:02;96747.94;;;20.12;100.00
43486;BME280;30447;48.742;8.972;2023-06-22T05:12:30;96742.66;;;20.12;100.00
43486;BME280;30447;48.742;8.972;2023-06-22T05:14:57;96738.69;;;20.24;100.00
43486;BME280;30447;48.742;8.972;2023-06-22T05:17:24;96730.66;;;20.27;100.00
43486;BME280;30447;48.742;8.972;2023-06-22T05:19:51;96734.94;;;20.30;100.00
43486;BME280;30447;48.742;8.972;2023-06-22T05:22:18;96733.97;;;20.32;100.00
43486;BME280;30447;48.742;8.972;2023-06-22T05:24:45;96731.13;;;20.37;100.00
43486;BME280;30447;48.742;8.972;2023-06-22T05:27:13;96729.78;;;20.47;100.00
43486;BME280;30447;48.742;8.972;2023-06-22T05:29:41;96730.66;;;20.48;100.00
43486;BME280;30447;48.742;8.972;2023-06-22T05:32:09;96729.72;;;20.70;100.00
43486;BME280;30447;48.742;8.972;2023-06-22T05:34:36;96729.84;;;20.87;99.62
43486;BME280;30447;48.742;8.972;2023-06-22T05:37:03;96726.72;;;20.98;100.00
43486;BME280;30447;48.742;8.972;2023-06-22T05:39:30;96722.47;;;21.15;100.00
43486;BME280;30447;48.742;8.972;2023-06-22T05:41:56;96728.50;;;21.17;100.00
43486;BME280;30447;48.742;8.972;2023-06-22T05:44:23;96726.75;;;21.18;99.86
43486;BME280;30447;48.742;8.972;2023-06-22T05:46:50;96723.63;;;21.29;99.90
43486;BME280;30447;48.742;8.972;2023-06-22T05:49:16;96718.81;;;21.37;99.58
43486;BME280;30447;48.742;8.972;2023-06-22T05:51:43;96728.59;;;21.35;99.29
43486;BME280;30447;48.742;8.972;2023-06-22T05:54:10;96727.16;;;21.47;98.93
43486;BME280;30447;48.742;8.972;2023-06-22T05:56:36;96714.75;;;21.49;99.26
43486;BME280;30447;48.742;8.972;2023-06-22T05:59:04;96725.28;;;21.49;98.76
43486;BME280;30447;48.742;8.972;2023-06-22T06:01:31;96726.06;;;21.70;98.50
43486;BME280;30447;48.742;8.972;2023-06-22T06:04:02;96723.22;;;21.75;97.74
43486;BME280;30447;48.742;8.972;2023-06-22T06:06:30;96718.50;;;21.82;97.99
43486;BME280;30447;48.742;8.972;2023-06-22T06:08:56;96712.53;;;21.96;97.05
43486;BME280;30447;48.742;8.972;2023-06-22T06:11:23;96713.47;;;21.95;97.50
43486;BME280;30447;48.742;8.972;2023-06-22T06:13:50;96717.66;;;21.99;96.93
43486;BME280;30447;48.742;8.972;2023-06-22T06:16:16;96718.44;;;22.18;96.57
43486;BME280;30447;48.742;8.972;2023-06-22T06:18:43;96710.69;;;22.15;96.14
43486;BME280;30447;48.742;8.972;2023-06-22T06:21:09;96709.00;;;22.32;96.19
43486;BME280;30447;48.742;8.972;2023-06-22T06:23:36;96704.62;;;22.49;94.75
43486;BME280;30447;48.742;8.972;2023-06-22T06:26:03;96712.84;;;22.60;93.45
43486;BME280;30447;48.742;8.972;2023-06-22T06:28:34;96713.63;;;22.62;92.91
43486;BME280;30447;48.742;8.972;2023-06-22T06:33:27;96710.94;;;22.80;92.11
43486;BME280;30447;48.742;8.972;2023-06-22T06:35:54;96713.66;;;22.78;91.33
43486;BME280;30447;48.742;8.972;2023-06-22T06:38:22;96722.72;;;22.90;92.45
43486;BME280;30447;48.742;8.972;2023-06-22T06:40:48;96722.56;;;22.93;92.10
43486;BME280;30447;48.742;8.972;2023-06-22T06:43:15;96721.81;;;23.07;89.36
43486;BME280;30447;48.742;8.972;2023-06-22T06:45:42;96718.81;;;23.14;90.39
43486;BME280;30447;48.742;8.972;2023-06-22T06:48:08;96715.53;;;23.26;88.97
43486;BME280;30447;48.742;8.972;2023-06-22T06:50:35;96722.13;;;23.35;89.03
43486;BME280;30447;48.742;8.972;2023-06-22T06:53:02;96717.19;;;23.45;88.00
43486;BME280;30447;48.742;8.972;2023-06-22T06:55:28;96714.78;;;23.40;88.18
43486;BME280;30447;48.742;8.972;2023-06-22T06:57:59;96707.38;;;23.47;87.68
43486;BME280;30447;48.742;8.972;2023-06-22T07:00:26;96703.63;;;23.51;88.69
43486;BME280;30447;48.742;8.972;2023-06-22T07:02:53;96697.72;;;23.62;87.56
43486;BME280;30447;48.742;8.972;2023-06-22T07:05:19;96695.47;;;23.70;87.02
43486;BME280;30447;48.742;8.972;2023-06-22T07:07:46;96687.19;;;23.76;87.59
43486;BME280;30447;48.742;8.972;2023-06-22T07:10:13;96686.88;;;23.83;87.12
43486;BME280;30447;48.742;8.972;2023-06-22T07:12:39;96683.06;;;23.87;86.24
43486;BME280;30447;48.742;8.972;2023-06-22T07:15:08;96675.38;;;23.98;85.34
43486;BME280;30447;48.742;8.972;2023-06-22T07:17:37;96678.97;;;23.97;86.18
43486;BME280;30447;48.742;8.972;2023-06-22T07:20:04;96673.13;;;24.07;84.90
43486;BME280;30447;48.742;8.972;2023-06-22T07:22:40;96670.53;;;24.21;84.35
43486;BME280;30447;48.742;8.972;2023-06-22T07:25:09;96669.72;;;24.35;82.57
43486;BME280;30447;48.742;8.972;2023-06-22T07:27:42;96664.88;;;24.42;82.65
43486;BME280;30447;48.742;8.972;2023-06-22T07:30:12;96660.47;;;24.57;82.01
43486;BME280;30447;48.742;8.972;2023-06-22T07:32:39;96660.28;;;24.60;82.20
43486;BME280;30447;48.742;8.972;2023-06-22T07:35:06;96659.69;;;24.69;82.21
43486;BME280;30447;48.742;8.972;2023-06-22T07:37:33;96658.47;;;24.75;81.81
43486;BME280;30447;48.742;8.972;2023-06-22T07:40:01;96648.53;;;24.79;81.57
43486;BME280;30447;48.742;8.972;2023-06-22T07:42:30;96633.22;;;24.84;81.45
43486;BME280;30447;48.742;8.972;2023-06-22T07:44:59;96630.88;;;24.94;81.85
43486;BME280;30447;48.742;8.972;2023-06-22T07:47:26;96632.81;;;25.05;81.40
43486;BME280;30447;48.742;8.972;2023-06-22T07:49:55;96638.41;;;25.15;80.76
43486;BME280;30447;48.742;8.972;2023-06-22T07:52:24;96646.75;;;25.08;78.94
43486;BME280;30447;48.742;8.972;2023-06-22T07:54:51;96648.81;;;25.18;78.73
43486;BME280;30447;48.742;8.972;2023-06-22T07:57:19;96659.47;;;25.31;78.96
43486;BME280;30447;48.742;8.972;2023-06-22T07:59:46;96676.69;;;25.38;78.92
43486;BME280;30447;48.742;8.972;2023-06-22T08:02:13;96669.72;;;25.50;77.66
43486;BME280;30447;48.742;8.972;2023-06-22T08:04:40;96666.78;;;25.55;76.96
43486;BME280;30447;48.742;8.972;2023-06-22T08:07:07;96672.13;;;25.68;76.79
43486;BME280;30447;48.742;8.972;2023-06-22T08:09:34;96682.91;;;25.79;76.98
43486;BME280;30447;48.742;8.972;2023-06-22T08:12:00;96690.91;;;25.92;77.25
43486;BME280;30447;48.742;8.972;2023-06-22T08:14:28;96690.19;;;26.03;76.44
43486;BME280;30447;48.742;8.972;2023-06-22T08:16:56;96695.59;;;26.01;75.44
43486;BME280;30447;48.742;8.972;2023-06-22T08:19:22;96698.22;;;25.88;75.41
43486;BME280;30447;48.742;8.972;2023-06-22T08:21:49;96701.75;;;26.02;76.01
43486;BME280;30447;48.742;8.972;2023-06-22T08:24:15;96703.56;;;26.01;74.97
43486;BME280;30447;48.742;8.972;2023-06-22T08:26:42;96700.94;;;26.14;75.83
43486;BME280;30447;48.742;8.972;2023-06-22T08:29:09;96711.13;;;26.21;75.57
43486;BME280;30447;48.742;8.972;2023-06-22T08:31:35;96700.84;;;26.16;74.87
43486;BME280;30447;48.742;8.972;2023-06-22T08:34:02;96698.44;;;25.98;76.06
43486;BME280;30447;48.742;8.972;2023-06-22T08:36:29;96697.19;;;25.91;76.89
43486;BME280;30447;48.742;8.972;2023-06-22T08:38:58;96689.78;;;26.09;75.64
43486;BME280;30447;48.742;8.972;2023-06-22T08:41:27;96685.16;;;26.26;76.50
43486;BME280;30447;48.742;8.972;2023-06-22T08:43:54;96694.84;;;26.53;76.27
43486;BME280;30447;48.742;8.972;2023-06-22T08:46:20;96691.25;;;26.41;75.67
43486;BME280;30447;48.742;8.972;2023-06-22T08:48:50;96686.88;;;26.53;75.51
43486;BME280;30447;48.742;8.972;2023-06-22T08:51:17;96674.53;;;26.65;74.47
43486;BME280;30447;48.742;8.972;2023-06-22T08:53:43;96669.56;;;26.73;75.02
43486;BME280;30447;48.742;8.972;2023-06-22T08:56:11;96685.06;;;26.66;74.18
43486;BME280;30447;48.742;8.972;2023-06-22T08:58:38;96695.50;;;26.57;74.70
43486;BME280;30447;48.742;8.972;2023-06-22T09:01:04;96697.38;;;26.67;75.36
43486;BME280;30447;48.742;8.972;2023-06-22T09:03:31;96696.66;;;26.39;76.56
43486;BME280;30447;48.742;8.972;2023-06-22T09:05:59;96698.56;;;26.50;75.39
43486;BME280;30447;48.742;8.972;2023-06-22T09:08:25;96692.19;;;26.53;75.92
43486;BME280;30447;48.742;8.972;2023-06-22T09:10:52;96691.66;;;26.48;75.31
43486;BME280;30447;48.742;8.972;2023-06-22T09:13:18;96679.31;;;26.73;76.25
43486;BME280;30447;48.742;8.972;2023-06-22T09:15:45;96684.00;;;26.82;74.90
43486;BME280;30447;48.742;8.972;2023-06-22T09:18:13;96675.09;;;26.96;74.55
43486;BME280;30447;48.742;8.972;2023-06-22T09:20:40;96663.03;;;27.03;74.75
43486;BME280;30447;48.742;8.972;2023-06-22T09:23:06;96653.09;;;27.18;75.07
43486;BME280;30447;48.742;8.972;2023-06-22T09:25:33;96655.69;;;27.07;73.99
43486;BME280;30447;48.742;8.972;2023-06-22T09:28:00;96645.84;;;26.96;74.55
43486;BME280;30447;48.742;8.972;2023-06-22T09:30:26;96646.59;;;26.98;74.61
43486;BME280;30447;48.742;8.972;2023-06-22T09:32:53;96647.16;;;27.15;75.30
43486;BME280;30447;48.742;8.972;2023-06-22T09:35:20;96640.34;;;27.24;76.17
43486;BME280;30447;48.742;8.972;2023-06-22T09:37:47;96632.06;;;27.40;76.34
43486;BME280;30447;48.742;8.972;2023-06-22T09:40:13;96632.13;;;27.64;76.57
43486;BME280;30447;48.742;8.972;2023-06-22T09:42:42;96620.66;;;27.75;74.21
43486;BME280;30447;48.742;8.972;2023-06-22T09:45:09;96613.44;;;27.89;74.90
43486;BME280;30447;48.742;8.972;2023-06-22T09:47:36;96611.66;;;28.01;73.80
43486;BME280;30447;48.742;8.972;2023-06-22T09:50:03;96606.34;;;28.01;73.06
43486;BME280;30447;48.742;8.972;2023-06-22T09:52:30;96602.00;;;28.11;73.02
43486;BME280;30447;48.742;8.972;2023-06-22T09:54:57;96588.50;;;28.37;73.95
43486;BME280;30447;48.742;8.972;2023-06-22T09:57:23;96601.22;;;28.56;73.43
43486;BME280;30447;48.742;8.972;2023-06-22T09:59:50;96583.78;;;28.75;73.20
43486;BME280;30447;48.742;8.972;2023-06-22T10:02:17;96597.06;;;28.86;72.02
43486;BME280;30447;48.742;8.972;2023-06-22T10:04:43;96586.69;;;28.83;71.49
43486;BME280;30447;48.742;8.972;2023-06-22T10:07:10;96573.59;;;29.03;69.08
43486;BME280;30447;48.742;8.972;2023-06-22T10:09:36;96571.50;;;29.07;69.20
43486;BME280;30447;48.742;8.972;2023-06-22T10:12:03;96571.81;;;29.25;71.06
43486;BME280;30447;48.742;8.972;2023-06-22T10:14:30;96574.97;;;29.30;69.55
43486;BME280;30447;48.742;8.972;2023-06-22T10:16:56;96580.84;;;29.56;69.91
43486;BME280;30447;48.742;8.972;2023-06-22T10:19:23;96575.19;;;29.71;70.16
43486;BME280;30447;48.742;8.972;2023-06-22T10:21:49;96564.44;;;29.82;69.93
43486;BME280;30447;48.742;8.972;2023-06-22T10:24:16;96572.81;;;29.99;67.39
43486;BME280;30447;48.742;8.972;2023-06-22T10:26:43;96571.87;;;30.00;67.70
43486;BME280;30447;48.742;8.972;2023-06-22T10:29:09;96570.44;;;29.96;65.00
43486;BME280;30447;48.742;8.972;2023-06-22T10:31:36;96564.44;;;30.04;64.44
43486;BME280;30447;48.742;8.972;2023-06-22T10:34:02;96557.25;;;30.04;63.74
43486;BME280;30447;48.742;8.972;2023-06-22T10:36:29;96569.34;;;30.20;63.24
43486;BME280;30447;48.742;8.972;2023-06-22T10:38:56;96568.41;;;30.31;66.53
43486;BME280;30447;48.742;8.972;2023-06-22T10:41:25;96560.03;;;30.45;66.39
43486;BME280;30447;48.742;8.972;2023-06-22T10:43:52;96552.88;;;30.46;65.47
43486;BME280;30447;48.742;8.972;2023-06-22T10:46:18;96547.69;;;30.54;64.42
43486;BME280;30447;48.742;8.972;2023-06-22T10:48:45;96544.75;;;30.67;64.28
43486;BME280;30447;48.742;8.972;2023-06-22T10:51:11;96545.53;;;30.79;64.37
43486;BME280;30447;48.742;8.972;2023-06-22T10:53:38;96549.78;;;30.92;66.64
43486;BME280;30447;48.742;8.972;2023-06-22T10:56:05;96558.53;;;31.04;67.25
43486;BME280;30447;48.742;8.972;2023-06-22T10:58:31;96552.34;;;30.93;64.20
43486;BME280;30447;48.742;8.972;2023-06-22T11:00:58;96550.34;;;30.85;64.36
43486;BME280;30447;48.742;8.972;2023-06-22T11:03:25;96550.31;;;30.75;65.08
43486;BME280;30447;48.742;8.972;2023-06-22T11:05:51;96553.41;;;30.81;64.66
43486;BME280;30447;48.742;8.972;2023-06-22T11:08:18;96562.19;;;30.93;67.60
43486;BME280;30447;48.742;8.972;2023-06-22T11:10:45;96558.69;;;31.02;68.23
43486;BME280;30447;48.742;8.972;2023-06-22T11:13:11;96554.31;;;31.01;68.10
43486;BME280;30447;48.742;8.972;2023-06-22T11:15:38;96541.37;;;31.06;67.31
43486;BME280;30447;48.742;8.972;2023-06-22T11:18:06;96554.44;;;31.09;67.75
43486;BME280;30447;48.742;8.972;2023-06-22T11:20:33;96557.97;;;31.10;68.39
43486;BME280;30447;48.742;8.972;2023-06-22T11:23:05;96553.91;;;31.16;68.08
43486;BME280;30447;48.742;8.972;2023-06-22T11:25:34;96546.81;;;30.95;67.60
43486;BME280;30447;48.742;8.972;2023-06-22T11:28:02;96543.06;;;31.07;65.94
43486;BME280;30447;48.742;8.972;2023-06-22T11:30:29;96531.09;;;31.11;67.07
43486;BME280;30447;48.742;8.972;2023-06-22T11:32:57;96526.59;;;31.12;66.89
43486;BME280;30447;48.742;8.972;2023-06-22T11:35:25;96519.28;;;31.14;65.30
43486;BME280;30447;48.742;8.972;2023-06-22T11:37:51;96523.38;;;31.18;66.05
43486;BME280;30447;48.742;8.972;2023-06-22T11:40:18;96526.59;;;31.12;67.03
43486;BME280;30447;48.742;8.972;2023-06-22T11:42:45;96530.28;;;31.21;66.74
43486;BME280;30447;48.742;8.972;2023-06-22T11:45:11;96528.28;;;31.03;65.49
43486;BME280;30447;48.742;8.972;2023-06-22T11:47:38;96524.22;;;31.09;67.22
43486;BME280;30447;48.742;8.972;2023-06-22T11:50:06;96525.44;;;30.95;68.31
43486;BME280;30447;48.742;8.972;2023-06-22T11:52:33;96525.69;;;30.82;66.09
43486;BME280;30447;48.742;8.972;2023-06-22T11:55:02;96553.97;;;30.74;66.44
43486;BME280;30447;48.742;8.972;2023-06-22T11:57:34;96564.19;;;30.69;68.00
43486;BME280;30447;48.742;8.972;2023-06-22T12:00:05;96576.78;;;30.79;68.15
43486;BME280;30447;48.742;8.972;2023-06-22T12:02:43;96575.03;;;30.68;68.34
43486;BME280;30447;48.742;8.972;2023-06-22T12:05:12;96567.69;;;30.60;66.63
43486;BME280;30447;48.742;8.972;2023-06-22T12:07:38;96567.06;;;30.46;66.43
43486;BME280;30447;48.742;8.972;2023-06-22T12:10:05;96560.97;;;30.66;66.52
43486;BME280;30447;48.742;8.972;2023-06-22T12:12:33;96562.78;;;30.65;65.28
43486;BME280;30447;48.742;8.972;2023-06-22T12:14:59;96555.78;;;30.74;65.86
43486;BME280;30447;48.742;8.972;2023-06-22T12:17:29;96539.72;;;30.64;66.08
43486;BME280;30447;48.742;8.972;2023-06-22T12:19:56;96544.12;;;30.75;65.49
43486;BME280;30447;48.742;8.972;2023-06-22T12:22:23;96567.34;;;30.74;67.60
43486;BME280;30447;48.742;8.972;2023-06-22T12:24:50;96555.09;;;30.72;67.54
43486;BME280;30447;48.742;8.972;2023-06-22T12:27:17;96562.59;;;30.57;66.80
43486;BME280;30447;48.742;8.972;2023-06-22T12:29:47;96585.28;;;30.62;66.80
43486;BME280;30447;48.742;8.972;2023-06-22T12:32:14;96577.28;;;30.31;65.98
43486;BME280;30447;48.742;8.972;2023-06-22T12:34:44;96568.50;;;30.19;66.95
43486;BME280;30447;48.742;8.972;2023-06-22T12:37:11;96555.59;;;30.25;66.80
43486;BME280;30447;48.742;8.972;2023-06-22T12:39:41;96554.75;;;30.55;67.40
43486;BME280;30447;48.742;8.972;2023-06-22T12:42:08;96558.47;;;30.74;67.22
43486;BME280;30447;48.742;8.972;2023-06-22T12:44:36;96556.91;;;30.71;67.45
43486;BME280;30447;48.742;8.972;2023-06-22T12:47:04;96553.97;;;30.74;65.98
43486;BME280;30447;48.742;8.972;2023-06-22T12:49:31;96559.31;;;30.74;66.74
43486;BME280;30447;48.742;8.972;2023-06-22T12:51:58;96573.94;;;30.39;65.77
43486;BME280;30447;48.742;8.972;2023-06-22T12:54:24;96570.41;;;30.39;66.17
43486;BME280;30447;48.742;8.972;2023-06-22T12:56:51;96585.44;;;30.40;66.37
43486;BME280;30447;48.742;8.972;2023-06-22T12:59:17;96591.00;;;30.27;67.05
43486;BME280;30447;48.742;8.972;2023-06-22T13:01:44;96596.56;;;30.14;67.21
43486;BME280;30447;48.742;8.972;2023-06-22T13:04:12;96595.06;;;30.21;68.39
43486;BME280;30447;48.742;8.972;2023-06-22T13:06:41;96595.66;;;30.25;69.08
43486;BME280;30447;48.742;8.972;2023-06-22T13:09:10;96587.56;;;30.15;69.84